Time;durP1;ratioP1;P1;durP2;ratioP2;P2;SDS_P1;SDS_P2;PMS_P1;PMS_P2;Temp;Humidity;BMP_temperature;BMP_pressure;BME280_temperature;BME280_humidity;BME280_pressure;Samples;Min_cycle;Max_cycle;Signal;HPM_P1;HPM_P2
2021/11/08 00:00:00;;;;;;;12.50;2.43;;;;;;;19.41;nan;100272.66;5057649;28;20167;-74
2021/11/08 00:02:27;;;;;;;12.43;3.20;;;;;;;20.19;nan;100281.94;5040268;28;20689;-73
2021/11/08 00:04:53;;;;;;;11.63;2.60;;;;;;;19.21;nan;100271.03;5040176;28;20168;-71
2021/11/08 00:07:19;;;;;;;12.10;2.73;;;;;;;19.66;nan;100266.53;5039937;28;20508;-73
2021/11/08 00:09:45;;;;;;;15.83;3.40;;;;;;;19.52;nan;100283.25;5039723;28;20177;-71
2021/11/08 00:12:12;;;;;;;11.27;2.73;;;;;;;19.95;nan;100281.72;5039597;28;20179;-73
2021/11/08 00:14:37;;;;;;;11.27;3.13;;;;;;;19.02;nan;100289.06;5039201;28;20698;-72
2021/11/08 00:17:16;;;;;;;12.17;2.77;;;;;;;20.06;nan;100278.75;5039284;28;20199;-73
2021/11/08 00:19:57;;;;;;;12.33;3.27;;;;;;;19.67;nan;100286.31;5041055;28;20154;-71
2021/11/08 00:22:22;;;;;;;14.30;3.00;;;;;;;20.21;nan;100281.78;5041755;28;20232;-72
2021/11/08 00:24:50;;;;;;;13.10;2.73;;;;;;;20.15;nan;100293.25;5057286;28;20177;-72
2021/11/08 00:27:15;;;;;;;10.93;2.57;;;;;;;20.02;nan;100288.22;5039410;28;20174;-71
2021/11/08 00:29:41;;;;;;;10.17;2.70;;;;;;;19.41;nan;100291.59;5039331;28;20174;-71
2021/11/08 00:32:07;;;;;;;6.00;2.33;;;;;;;20.39;nan;100289.88;5039837;28;20173;-73
2021/11/08 00:34:32;;;;;;;11.93;3.13;;;;;;;19.99;nan;100291.22;5056924;28;20562;-72
2021/11/08 00:36:58;;;;;;;9.00;2.67;;;;;;;20.26;nan;100303.84;5039465;28;20208;-72
2021/11/08 00:39:25;;;;;;;14.33;2.90;;;;;;;19.84;nan;100300.91;5022502;28;20167;-71
2021/11/08 00:41:51;;;;;;;8.60;2.30;;;;;;;20.24;nan;100311.28;5039839;28;20508;-72
2021/11/08 00:44:17;;;;;;;9.83;2.40;;;;;;;20.47;nan;100308.97;5057856;28;20239;-73
2021/11/08 00:46:42;;;;;;;6.13;2.23;;;;;;;20.50;nan;100323.06;5040255;28;20660;-72
2021/11/08 00:49:09;;;;;;;8.50;2.30;;;;;;;19.41;nan;100318.66;5058502;28;20179;-71
2021/11/08 00:51:37;;;;;;;7.80;2.40;;;;;;;20.31;nan;100315.06;5038888;28;20178;-74
2021/11/08 00:54:04;;;;;;;10.67;2.43;;;;;;;20.00;nan;100320.00;5056632;28;20217;-73
2021/11/08 00:56:29;;;;;;;8.63;2.33;;;;;;;19.94;nan;100340.44;5039103;28;20170;-72
2021/11/08 00:58:55;;;;;;;9.97;2.83;;;;;;;19.71;nan;100330.22;5056785;28;20540;-72
2021/11/08 01:01:21;;;;;;;7.23;2.20;;;;;;;19.71;nan;100341.91;5038621;28;20527;-74
2021/11/08 01:03:48;;;;;;;12.37;2.43;;;;;;;19.78;nan;100343.00;5038400;28;20742;-72
2021/11/08 01:06:15;;;;;;;7.60;1.93;;;;;;;19.86;nan;100343.06;5055674;28;20256;-72
2021/11/08 01:08:41;;;;;;;3.93;1.70;;;;;;;20.42;nan;100343.81;5037758;28;20170;-73
2021/11/08 01:11:07;;;;;;;6.43;2.30;;;;;;;19.73;nan;100339.88;5038771;28;20259;-73
2021/11/08 01:13:34;;;;;;;10.93;1.90;;;;;;;20.24;nan;100344.66;5056552;28;20193;-72
2021/11/08 01:16:00;;;;;;;5.40;1.90;;;;;;;20.10;nan;100347.91;5039322;28;20686;-73
2021/11/08 01:18:26;;;;;;;4.03;1.97;;;;;;;19.47;nan;100353.22;5038762;28;20308;-72
2021/11/08 01:20:52;;;;;;;9.57;1.73;;;;;;;20.11;nan;100349.59;5038744;28;20172;-72
2021/11/08 01:23:21;;;;;;;4.27;1.80;;;;;;;20.01;nan;100347.94;5038307;28;20197;-73
2021/11/08 01:25:53;;;;;;;4.30;1.53;;;;;;;19.73;nan;100358.00;5039225;28;20176;-73
2021/11/08 01:28:19;;;;;;;3.03;1.47;;;;;;;20.68;nan;100357.41;5039494;28;20162;-73
2021/11/08 01:30:45;;;;;;;6.90;1.77;;;;;;;20.44;nan;100353.50;5037841;28;20257;-73
2021/11/08 01:33:16;;;;;;;8.27;1.73;;;;;;;19.79;nan;100350.09;5037452;28;20700;-72
2021/11/08 01:35:43;;;;;;;4.80;1.57;;;;;;;20.12;nan;100370.28;5038187;28;20152;-72
2021/11/08 01:38:12;;;;;;;4.87;1.77;;;;;;;20.06;nan;100375.44;5038661;28;20274;-72
2021/11/08 01:40:39;;;;;;;4.67;1.50;;;;;;;20.87;nan;100373.50;5047958;28;20589;-73
2021/11/08 01:43:06;;;;;;;7.20;1.53;;;;;;;20.19;nan;100379.47;5021598;28;20196;-72
2021/11/08 01:45:32;;;;;;;4.53;1.40;;;;;;;20.15;nan;100369.13;5038581;28;20577;-72
2021/11/08 01:47:57;;;;;;;5.00;1.33;;;;;;;19.90;nan;100384.25;5038425;28;20307;-74
2021/11/08 01:50:23;;;;;;;4.43;1.37;;;;;;;20.08;nan;100381.56;5020879;28;20206;-73
2021/11/08 01:52:49;;;;;;;10.63;1.70;;;;;;;20.10;nan;100383.13;5037388;28;20280;-73
2021/11/08 01:55:15;;;;;;;3.87;1.40;;;;;;;19.88;nan;100378.97;5020575;28;20182;-72
2021/11/08 01:57:42;;;;;;;3.13;1.17;;;;;;;20.66;nan;100392.81;5054980;28;20195;-73
2021/11/08 02:00:08;;;;;;;4.87;1.20;;;;;;;20.92;nan;100399.16;5037367;28;20175;-73
2021/11/08 02:02:34;;;;;;;7.17;1.03;;;;;;;19.89;nan;100394.22;5036723;28;20187;-73
2021/11/08 02:05:00;;;;;;;2.80;1.30;;;;;;;20.67;nan;100382.81;5037115;28;20177;-73
2021/11/08 02:07:25;;;;;;;5.17;1.30;;;;;;;20.30;nan;100398.22;5036953;28;20699;-73
2021/11/08 02:09:51;;;;;;;3.63;1.23;;;;;;;20.86;nan;100409.78;5036769;28;20536;-73
2021/11/08 02:12:16;;;;;;;6.73;1.40;;;;;;;21.00;nan;100405.63;5036685;28;20182;-74
2021/11/08 02:14:42;;;;;;;3.90;1.37;;;;;;;20.50;nan;100404.38;5054454;28;20195;-73
2021/11/08 02:17:07;;;;;;;4.93;1.20;;;;;;;20.32;nan;100417.03;5054964;28;20261;-73
2021/11/08 02:19:33;;;;;;;7.53;1.20;;;;;;;20.67;nan;100420.78;5036424;28;20528;-73
2021/11/08 02:22:01;;;;;;;2.30;1.23;;;;;;;19.75;nan;100426.38;5054254;28;20539;-73
2021/11/08 02:24:28;;;;;;;6.17;1.43;;;;;;;20.24;nan;100427.78;5036609;28;20188;-71
2021/11/08 02:26:53;;;;;;;5.60;1.63;;;;;;;21.12;nan;100442.34;5054254;28;20206;-73
2021/11/08 02:29:19;;;;;;;4.97;1.80;;;;;;;20.42;nan;100433.25;5019689;28;20266;-72
2021/11/08 02:31:44;;;;;;;5.90;1.40;;;;;;;20.96;nan;100431.38;5054475;28;20226;-73
2021/11/08 02:34:10;;;;;;;6.60;1.50;;;;;;;20.47;nan;100441.78;5054296;28;20197;-72
2021/11/08 02:36:41;;;;;;;4.63;1.53;;;;;;;20.73;nan;100450.84;5054399;28;20656;-73
2021/11/08 02:39:06;;;;;;;3.83;1.30;;;;;;;21.09;nan;100442.66;5054174;28;20161;-73
2021/11/08 02:41:32;;;;;;;5.77;1.70;;;;;;;20.78;nan;100453.09;5036638;28;20173;-73
2021/11/08 02:43:58;;;;;;;2.20;1.43;;;;;;;20.88;nan;100443.88;5036325;28;20202;-73
2021/11/08 02:46:26;;;;;;;6.83;1.57;;;;;;;20.91;nan;100457.13;5053996;28;20166;-73
2021/11/08 02:48:52;;;;;;;7.40;1.27;;;;;;;20.88;nan;100462.00;5053766;28;20198;-73
2021/11/08 02:51:22;;;;;;;5.00;1.87;;;;;;;21.38;nan;100469.53;5053675;28;20177;-73
2021/11/08 02:53:51;;;;;;;6.23;2.13;;;;;;;21.20;nan;100470.41;5036395;28;20399;-73
2021/11/08 02:56:19;;;;;;;7.97;1.60;;;;;;;20.97;nan;100476.47;5019751;28;20225;-72
2021/11/08 02:58:45;;;;;;;5.67;1.90;;;;;;;21.39;nan;100473.94;5019604;28;20191;-74
2021/11/08 03:01:12;;;;;;;5.73;1.70;;;;;;;21.09;nan;100476.06;5019468;28;20173;-75
2021/11/08 03:03:44;;;;;;;6.73;1.60;;;;;;;20.56;nan;100481.53;5036483;28;20575;-74
2021/11/08 03:06:20;;;;;;;5.43;1.53;;;;;;;20.76;nan;100477.66;5053938;28;20209;-74
2021/11/08 03:08:46;;;;;;;9.80;1.90;;;;;;;20.97;nan;100492.75;5020481;28;20156;-73
2021/11/08 03:11:12;;;;;;;6.80;1.60;;;;;;;20.24;nan;100482.00;5053808;28;20583;-73
2021/11/08 03:13:39;;;;;;;6.97;1.90;;;;;;;21.22;nan;100497.41;5053250;28;20188;-73
2021/11/08 03:16:14;;;;;;;5.93;1.67;;;;;;;20.38;nan;100489.59;5053706;28;20264;-74
2021/11/08 03:18:42;;;;;;;3.87;1.63;;;;;;;20.29;nan;100493.22;5037094;28;20669;-74
2021/11/08 03:21:17;;;;;;;8.40;1.80;;;;;;;20.66;nan;100501.28;5035763;28;20234;-73
2021/11/08 03:23:45;;;;;;;9.03;1.93;;;;;;;20.29;nan;100504.91;5035097;28;20196;-74
2021/11/08 03:26:28;;;;;;;7.07;1.63;;;;;;;20.53;nan;100507.09;5035610;28;20642;-75
2021/11/08 03:28:54;;;;;;;12.20;1.70;;;;;;;20.15;nan;100508.13;5038211;28;20175;-74
2021/11/08 03:31:19;;;;;;;7.30;1.47;;;;;;;20.60;nan;100523.59;5034903;28;20521;-74
2021/11/08 03:33:47;;;;;;;7.90;1.67;;;;;;;21.19;nan;100503.13;5035554;28;20508;-75
2021/11/08 03:36:12;;;;;;;9.47;1.83;;;;;;;20.41;nan;100524.56;5053176;28;20210;-75
2021/11/08 03:38:39;;;;;;;8.23;2.17;;;;;;;20.28;nan;100524.03;5053313;28;20287;-74
2021/11/08 03:41:05;;;;;;;11.33;2.20;;;;;;;20.94;nan;100534.63;5035855;28;20204;-75
2021/11/08 03:43:31;;;;;;;11.87;1.87;;;;;;;21.15;nan;100531.56;5018513;28;20230;-75
2021/11/08 03:45:57;;;;;;;14.27;2.20;;;;;;;21.10;nan;100526.63;5035072;28;20211;-77
2021/11/08 03:48:22;;;;;;;7.63;2.00;;;;;;;20.51;nan;100538.91;5035268;28;20579;-73
2021/11/08 03:50:48;;;;;;;5.77;1.97;;;;;;;21.36;nan;100540.28;5035079;28;20269;-75
2021/11/08 03:53:15;;;;;;;9.53;1.93;;;;;;;20.90;nan;100544.94;5035080;28;20253;-75
2021/11/08 03:55:40;;;;;;;11.30;1.80;;;;;;;20.63;nan;100539.56;5018652;28;20223;-74
2021/11/08 03:58:06;;;;;;;9.93;1.93;;;;;;;20.87;nan;100539.81;5035218;28;20196;-74
2021/11/08 04:00:32;;;;;;;9.93;2.20;;;;;;;21.28;nan;100553.78;5035383;28;20661;-73
2021/11/08 04:02:58;;;;;;;8.13;2.27;;;;;;;21.39;nan;100548.09;5018476;28;20197;-74
2021/11/08 04:05:26;;;;;;;8.07;1.70;;;;;;;21.29;nan;100558.22;5018599;28;20174;-75
2021/11/08 04:07:52;;;;;;;5.63;1.70;;;;;;;21.50;nan;100561.41;5035113;28;20164;-74
2021/11/08 04:10:18;;;;;;;11.27;1.63;;;;;;;20.92;nan;100561.06;5035145;28;20178;-74
2021/11/08 04:12:45;;;;;;;5.17;1.50;;;;;;;21.38;nan;100562.69;5035136;28;20201;-73
2021/11/08 04:15:13;;;;;;;7.40;2.00;;;;;;;21.23;nan;100575.13;5034940;28;20269;-74
2021/11/08 04:17:44;;;;;;;9.33;1.73;;;;;;;21.96;nan;100577.53;5035047;28;20246;-74
2021/11/08 04:20:20;;;;;;;6.10;1.77;;;;;;;21.19;nan;100579.97;5018919;28;20166;-74
2021/11/08 04:22:48;;;;;;;7.87;1.87;;;;;;;21.16;nan;100587.53;5052848;28;20225;-74
2021/11/08 04:25:14;;;;;;;14.27;2.67;;;;;;;21.55;nan;100582.66;5052971;28;20177;-74
2021/11/08 04:27:44;;;;;;;10.90;2.00;;;;;;;21.66;nan;100584.28;5035565;28;20172;-74
2021/11/08 04:30:11;;;;;;;11.57;2.17;;;;;;;21.74;nan;100598.78;5037122;28;20193;-75
2021/11/08 04:32:50;;;;;;;11.73;2.10;;;;;;;21.07;nan;100602.06;5036326;28;20175;-75
2021/11/08 04:35:23;;;;;;;11.23;1.90;;;;;;;21.33;nan;100607.59;5038802;28;20170;-75
2021/11/08 04:40:41;;;;;;;10.40;1.83;;;;;;;21.03;nan;100603.38;5053214;28;20644;-74
2021/11/08 04:45:59;;;;;;;7.40;1.70;;;;;;;21.58;nan;100612.25;5056783;28;20266;-75
2021/11/08 04:51:08;;;;;;;9.80;2.07;;;;;;;20.58;nan;100606.94;5056990;28;20169;-73
2021/11/08 04:54:00;;;;;;;11.70;2.30;;;;;;;21.84;nan;100614.97;5068343;22;20225;-69
2021/11/08 05:31:38;;;;;;;5.47;1.97;;;;;;;22.60;nan;100664.03;5040251;28;20649;-69
2021/11/08 05:34:03;;;;;;;11.00;2.03;;;;;;;22.37;nan;100671.06;5037281;28;20206;-69
2021/11/08 05:36:29;;;;;;;5.10;1.83;;;;;;;22.75;nan;100667.88;5021102;28;20222;-69
2021/11/08 05:38:54;;;;;;;6.50;1.90;;;;;;;22.69;nan;100673.97;5020732;28;20201;-68
2021/11/08 05:41:19;;;;;;;6.90;1.77;;;;;;;22.59;nan;100672.34;5037686;28;20182;-68
2021/11/08 05:43:45;;;;;;;9.13;2.07;;;;;;;22.74;nan;100677.03;5055120;28;20206;-67
2021/11/08 05:46:10;;;;;;;11.00;2.20;;;;;;;22.99;nan;100683.44;5055064;28;20634;-69
2021/11/08 05:48:37;;;;;;;9.43;2.00;;;;;;;22.55;nan;100699.03;5054973;28;20177;-70
2021/11/08 05:51:02;;;;;;;7.53;2.30;;;;;;;22.65;nan;100701.63;5037557;28;20184;-68
2021/11/08 05:53:27;;;;;;;7.00;1.83;;;;;;;22.55;nan;100707.19;5054474;28;20579;-68
2021/11/08 05:56:05;;;;;;;7.13;2.60;;;;;;;22.82;nan;100711.63;5037126;28;20178;-68
2021/11/08 05:58:52;;;;;;;9.50;2.43;;;;;;;22.34;nan;100717.63;5036934;28;20562;-69
2021/11/08 06:50:25;;;;;;;14.20;2.40;;;;;;;22.23;nan;100788.53;5045629;28;20167;-69
2021/11/08 06:52:56;;;;;;;8.77;2.63;;;;;;;22.59;nan;100786.59;5056196;28;20182;-68
2021/11/08 06:55:21;;;;;;;11.63;2.80;;;;;;;22.32;nan;100791.19;5054264;28;20618;-68
2021/11/08 06:57:49;;;;;;;8.43;2.30;;;;;;;22.45;nan;100791.63;5053889;28;20198;-69
2021/11/08 07:00:20;;;;;;;7.53;2.40;;;;;;;22.68;nan;100802.84;5020015;28;20635;-70
2021/11/08 07:02:45;;;;;;;8.87;2.13;;;;;;;22.04;nan;100795.88;5053907;28;20245;-69
2021/11/08 07:05:11;;;;;;;11.20;1.83;;;;;;;21.82;nan;100799.84;5035351;28;20210;-70
2021/11/08 07:07:37;;;;;;;6.20;2.07;;;;;;;22.30;nan;100814.06;5019926;28;20178;-69
2021/11/08 07:10:04;;;;;;;5.13;1.70;;;;;;;22.10;nan;100818.84;5054039;28;20279;-70
2021/11/08 07:12:30;;;;;;;13.07;2.53;;;;;;;22.18;nan;100820.78;5036249;28;20174;-69
2021/11/08 07:14:55;;;;;;;11.43;2.73;;;;;;;22.45;nan;100815.22;5035863;28;20293;-69
2021/11/08 07:17:20;;;;;;;6.73;1.93;;;;;;;22.99;nan;100819.53;5053703;28;20571;-70
2021/11/08 07:19:45;;;;;;;12.87;5.70;;;;;;;22.99;nan;100821.41;5054478;28;20634;-70
2021/11/08 07:22:11;;;;;;;8.80;2.43;;;;;;;22.41;nan;100828.28;5035946;28;20193;-69
2021/11/08 07:24:36;;;;;;;12.30;2.07;;;;;;;22.67;nan;100833.78;5053543;28;20256;-69
2021/11/08 07:27:02;;;;;;;4.73;2.00;;;;;;;22.80;nan;100840.66;5036023;28;20190;-69
2021/11/08 07:29:28;;;;;;;7.83;2.20;;;;;;;22.82;nan;100841.38;5036158;28;20198;-70
2021/11/08 07:31:54;;;;;;;6.57;2.53;;;;;;;23.20;nan;100840.91;5053788;28;20521;-69
2021/11/08 07:34:20;;;;;;;8.07;2.10;;;;;;;22.86;nan;100849.06;5036011;28;20195;-70
2021/11/08 07:36:45;;;;;;;8.77;1.70;;;;;;;23.49;nan;100853.31;5036541;28;20172;-69
2021/11/08 07:39:11;;;;;;;8.43;3.97;;;;;;;22.83;nan;100846.66;5053604;28;20181;-70
2021/11/08 07:41:36;;;;;;;6.00;1.83;;;;;;;23.53;nan;100838.34;5053837;28;20218;-69
2021/11/08 07:44:02;;;;;;;7.30;2.80;;;;;;;23.58;nan;100855.06;5036030;28;20205;-69
2021/11/08 07:46:27;;;;;;;8.90;3.90;;;;;;;23.59;nan;100856.78;5035952;28;20669;-69
2021/11/08 07:48:53;;;;;;;6.40;1.97;;;;;;;23.83;nan;100865.03;5018842;28;20665;-70
2021/11/08 07:51:19;;;;;;;10.40;3.27;;;;;;;23.17;nan;100857.56;5053709;28;20175;-69
2021/11/08 07:53:45;;;;;;;5.50;2.30;;;;;;;23.47;nan;100864.38;5053282;28;20214;-69
2021/11/08 07:56:11;;;;;;;5.80;2.27;;;;;;;23.45;nan;100869.13;5035626;28;20638;-69
2021/11/08 07:58:36;;;;;;;6.10;1.90;;;;;;;23.30;nan;100873.47;5035468;28;20217;-69
2021/11/08 08:01:02;;;;;;;7.03;2.23;;;;;;;22.72;nan;100876.81;5018916;28;20190;-69
2021/11/08 08:03:28;;;;;;;7.43;1.63;;;;;;;22.80;nan;100881.47;5035410;28;20236;-69
2021/11/08 08:05:57;;;;;;;9.17;1.90;;;;;;;22.75;nan;100871.91;5053673;28;20175;-69
2021/11/08 08:08:23;;;;;;;4.60;1.50;;;;;;;22.42;nan;100873.50;5035091;28;20174;-69
2021/11/08 08:10:51;;;;;;;5.80;1.70;;;;;;;23.31;nan;100881.47;5035200;28;20184;-69
2021/11/08 08:13:20;;;;;;;7.10;1.57;;;;;;;22.39;nan;100895.59;5053076;28;20198;-69
2021/11/08 08:15:46;;;;;;;6.07;1.13;;;;;;;22.71;nan;100889.56;5053736;28;20678;-69
2021/11/08 08:18:12;;;;;;;4.20;1.20;;;;;;;22.20;nan;100894.88;5022701;28;20217;-70
2021/11/08 08:20:37;;;;;;;4.70;1.20;;;;;;;22.59;nan;100903.56;5039944;28;20181;-69
2021/11/08 08:23:03;;;;;;;6.13;1.40;;;;;;;22.95;nan;100902.50;5057035;28;20563;-70
2021/11/08 08:25:29;;;;;;;7.73;1.93;;;;;;;22.03;nan;100899.25;5056887;28;20186;-68
2021/11/08 08:27:58;;;;;;;2.70;0.97;;;;;;;22.74;nan;100911.00;5057347;28;20592;-69
2021/11/08 08:30:24;;;;;;;2.73;0.87;;;;;;;22.51;nan;100909.78;5040147;28;20196;-69
2021/11/08 08:32:49;;;;;;;4.53;1.63;;;;;;;23.22;nan;100908.81;5056660;28;20631;-69
2021/11/08 08:35:14;;;;;;;5.67;1.27;;;;;;;22.98;nan;100901.34;5039061;28;20171;-69
2021/11/08 08:37:40;;;;;;;5.57;0.97;;;;;;;23.28;nan;100919.91;5056803;28;20272;-70
2021/11/08 08:40:06;;;;;;;5.47;1.40;;;;;;;23.66;nan;100909.59;5038819;28;20175;-69
2021/11/08 08:42:31;;;;;;;3.77;1.10;;;;;;;;;;5038547;28;20244;-70
2021/11/08 08:44:56;;;;;;;4.68;1.08;;;;;;;24.09;nan;100919.44;5056358;28;20304;-70
2021/11/08 08:47:22;;;;;;;5.10;1.53;;;;;;;24.06;nan;100929.81;5056800;28;20540;-70
2021/11/08 08:49:49;;;;;;;4.33;1.40;;;;;;;23.92;nan;100924.00;5057791;28;20635;-69
2021/11/08 08:52:15;;;;;;;5.83;2.00;;;;;;;22.90;nan;100934.78;5039045;28;20190;-68
2021/11/08 08:54:40;;;;;;;9.33;1.50;;;;;;;23.27;nan;100931.81;5056225;28;20195;-69
2021/11/08 08:57:07;;;;;;;6.70;1.60;;;;;;;23.41;nan;100933.09;5038629;28;20182;-68
2021/11/08 08:59:32;;;;;;;6.80;1.47;;;;;;;23.47;nan;100934.34;5056542;28;20643;-69
2021/11/08 09:01:58;;;;;;;6.33;1.40;;;;;;;22.99;nan;100933.84;5021801;28;20170;-69
2021/11/08 09:04:25;;;;;;;7.30;1.70;;;;;;;23.28;nan;100933.53;5055992;28;20198;-69
2021/11/08 09:06:50;;;;;;;10.80;2.00;;;;;;;22.56;nan;100940.09;5056665;28;20174;-70
2021/11/08 09:09:16;;;;;;;10.40;2.17;;;;;;;22.85;nan;100949.91;5056389;28;20201;-69
2021/11/08 09:11:41;;;;;;;13.50;2.33;;;;;;;22.22;nan;100942.63;5039970;28;20182;-69
2021/11/08 09:14:06;;;;;;;20.97;3.37;;;;;;;21.79;nan;100952.28;5063736;28;20697;-69
2021/11/08 09:16:33;;;;;;;14.83;2.40;;;;;;;22.14;nan;100956.13;5047274;28;20258;-70
2021/11/08 09:18:58;;;;;;;18.03;2.83;;;;;;;22.57;nan;100951.81;5047983;28;20204;-70
2021/11/08 09:21:26;;;;;;;12.70;2.33;;;;;;;23.31;nan;100948.69;5042810;28;20182;-69
2021/11/08 09:23:53;;;;;;;13.57;3.70;;;;;;;22.89;nan;100956.72;5056167;28;20194;-69
2021/11/08 09:26:19;;;;;;;16.30;3.67;;;;;;;22.68;nan;100966.06;5022614;28;20174;-69
2021/11/08 09:28:44;;;;;;;14.37;3.10;;;;;;;22.84;nan;100959.94;5022487;28;20175;-69
2021/11/08 09:31:10;;;;;;;22.13;2.50;;;;;;;23.10;nan;100968.13;5056781;28;20170;-69
2021/11/08 09:33:35;;;;;;;16.93;2.40;;;;;;;22.77;nan;100966.97;5039947;28;20203;-70
2021/11/08 09:36:08;;;;;;;13.27;2.70;;;;;;;23.13;nan;100981.44;5040327;28;20174;-70
2021/11/08 09:38:36;;;;;;;17.13;2.87;;;;;;;24.02;nan;100967.47;5057820;28;20179;-69
2021/11/08 09:41:03;;;;;;;10.07;2.20;;;;;;;22.75;nan;100967.13;5037788;28;20183;-69
2021/11/08 09:43:29;;;;;;;14.50;2.63;;;;;;;23.60;nan;100973.75;5037706;28;20195;-69
2021/11/08 09:45:55;;;;;;;11.00;2.70;;;;;;;23.10;nan;100970.84;5038451;28;20619;-69
2021/11/08 09:48:21;;;;;;;11.27;2.17;;;;;;;23.67;nan;100976.69;5037720;28;20178;-69
2021/11/08 09:50:48;;;;;;;9.70;1.97;;;;;;;23.04;nan;100971.47;5021278;28;20661;-69
2021/11/08 09:53:15;;;;;;;10.40;2.03;;;;;;;22.65;nan;100979.09;5037242;28;20211;-69
2021/11/08 09:55:43;;;;;;;13.47;2.40;;;;;;;22.95;nan;100969.69;5021264;28;20167;-69
2021/11/08 09:58:09;;;;;;;10.70;1.97;;;;;;;22.78;nan;100971.41;5038349;28;20190;-69
2021/11/08 10:00:37;;;;;;;10.13;2.10;;;;;;;23.01;nan;100982.66;5021482;28;20181;-69
2021/11/08 10:03:08;;;;;;;7.67;1.67;;;;;;;22.71;nan;100994.81;5055516;28;20671;-69
2021/11/08 10:05:36;;;;;;;6.43;2.30;;;;;;;22.38;nan;100980.03;5038155;28;20172;-69
2021/11/08 10:08:01;;;;;;;12.70;2.10;;;;;;;22.32;nan;100988.81;5020739;28;20173;-69
2021/11/08 10:10:29;;;;;;;9.67;1.73;;;;;;;21.93;nan;100990.81;5054688;28;20168;-69
2021/11/08 10:13:07;;;;;;;5.07;1.57;;;;;;;21.73;nan;101009.09;5054973;28;20193;-70
2021/11/08 10:15:32;;;;;;;5.93;1.90;;;;;;;21.94;nan;101000.72;5020287;28;20176;-69
2021/11/08 10:17:57;;;;;;;4.70;1.43;;;;;;;21.91;nan;101004.56;5037271;28;20245;-69
2021/11/08 10:20:38;;;;;;;10.67;1.53;;;;;;;22.29;nan;100997.25;5020886;28;20248;-70
2021/11/08 10:23:05;;;;;;;7.83;1.50;;;;;;;21.81;nan;100999.19;5037503;28;20289;-69
2021/11/08 10:25:33;;;;;;;6.03;1.30;;;;;;;22.07;nan;100999.38;5054551;28;20177;-68
2021/11/08 10:27:58;;;;;;;11.53;1.47;;;;;;;21.48;nan;101013.31;5036849;28;20305;-69
2021/11/08 10:30:32;;;;;;;13.67;5.27;;;;;;;22.82;nan;101004.63;5036607;28;20664;-69
2021/11/08 10:33:12;;;;;;;6.50;1.70;;;;;;;22.93;nan;100998.94;5036643;28;20517;-70
2021/11/08 10:35:40;;;;;;;5.73;1.27;;;;;;;22.63;nan;101011.88;5036885;28;20163;-71
2021/11/08 10:38:11;;;;;;;8.53;1.30;;;;;;;22.74;nan;101017.13;5054175;28;20194;-71
2021/11/08 10:40:52;;;;;;;7.80;1.47;;;;;;;22.38;nan;101018.94;5036749;28;20160;-70
2021/11/08 10:43:32;;;;;;;6.40;1.67;;;;;;;22.60;nan;101016.78;5036782;28;20525;-70
2021/11/08 10:46:02;;;;;;;5.30;1.47;;;;;;;23.20;nan;101015.16;5020373;28;20217;-69
2021/11/08 10:48:30;;;;;;;8.17;1.80;;;;;;;21.35;nan;101034.50;5036434;28;20171;-70
2021/11/08 10:50:58;;;;;;;8.37;1.73;;;;;;;23.78;nan;101025.44;5054059;28;20206;-70
2021/11/08 10:53:23;;;;;;;9.30;1.80;;;;;;;23.82;nan;101032.31;5076790;22;20269;-72
2021/11/08 10:55:55;;;;;;;6.80;1.87;;;;;;;22.67;nan;101024.19;5039472;28;20242;-72
2021/11/08 10:58:22;;;;;;;4.07;1.47;;;;;;;22.30;nan;101031.56;5055807;28;20205;-72
2021/11/08 11:00:59;;;;;;;7.37;3.40;;;;;;;22.40;nan;101016.94;5056041;28;20193;-72
2021/11/08 11:03:25;;;;;;;2.97;1.27;;;;;;;22.87;nan;101015.91;5056266;28;20185;-72
2021/11/08 11:06:05;;;;;;;5.23;1.43;;;;;;;23.60;nan;101024.66;5055876;28;20174;-72
2021/11/08 11:08:31;;;;;;;4.00;1.87;;;;;;;24.03;nan;101018.25;5055997;28;20645;-72
2021/11/08 11:10:59;;;;;;;3.20;1.40;;;;;;;;;;5075571;28;20175;-73
2021/11/08 11:13:25;;;;;;;4.33;0.90;;;;;;;23.12;nan;101009.66;5073200;28;20210;-71
2021/11/08 11:16:00;;;;;;;2.37;1.00;;;;;;;22.96;nan;101015.81;5055910;28;20179;-73
2021/11/08 11:18:25;;;;;;;1.43;0.90;;;;;;;22.80;nan;101012.91;5073981;28;20272;-72
2021/11/08 11:20:50;;;;;;;2.27;1.10;;;;;;;22.10;nan;101022.69;5074573;28;20182;-72
2021/11/08 11:23:29;;;;;;;4.93;1.23;;;;;;;23.49;nan;101024.91;5074207;28;20174;-74
2021/11/08 11:26:02;;;;;;;2.30;0.93;;;;;;;24.62;nan;101030.06;5056067;28;20176;-73
2021/11/08 11:28:34;;;;;;;1.90;1.10;;;;;;;25.93;nan;101022.69;5056224;28;20178;-74
2021/11/08 11:31:00;;;;;;;2.20;0.90;;;;;;;26.60;nan;101031.28;5039256;28;20174;-73
2021/11/08 11:33:29;;;;;;;4.07;0.80;;;;;;;24.24;nan;101015.97;5055455;28;20181;-73
2021/11/08 11:36:03;;;;;;;2.00;0.70;;;;;;;24.78;nan;101026.50;5055816;28;20185;-73
2021/11/08 11:38:32;;;;;;;3.83;1.13;;;;;;;22.86;nan;101025.06;5072976;28;20191;-73
2021/11/08 11:41:06;;;;;;;2.53;0.90;;;;;;;21.92;nan;101024.44;5038764;28;20673;-73
2021/11/08 11:43:55;;;;;;;4.07;1.67;;;;;;;22.87;nan;101033.09;5055590;28;20223;-74
2021/11/08 11:46:23;;;;;;;3.10;1.40;;;;;;;22.51;nan;101039.47;5038479;28;20248;-75
2021/11/08 11:48:50;;;;;;;3.50;1.77;;;;;;;22.85;nan;101028.81;5056226;28;20216;-74
2021/11/08 11:51:18;;;;;;;2.60;1.10;;;;;;;22.25;nan;101036.63;5055052;28;20171;-73
2021/11/08 11:53:43;;;;;;;4.03;1.03;;;;;;;21.61;nan;101048.31;5054894;28;20264;-73
2021/11/08 11:56:11;;;;;;;3.93;1.00;;;;;;;22.05;nan;101025.00;5055366;28;20167;-74
2021/11/08 11:58:37;;;;;;;2.23;0.93;;;;;;;22.34;nan;101035.72;5055117;28;20663;-73
2021/11/08 12:01:04;;;;;;;2.97;1.03;;;;;;;22.07;nan;101044.72;5054836;28;20201;-73
2021/11/08 12:03:30;;;;;;;4.47;0.90;;;;;;;22.28;nan;101031.72;5055089;28;20696;-75
2021/11/08 12:05:56;;;;;;;3.40;1.00;;;;;;;21.49;nan;101044.88;5055200;28;20273;-74
2021/11/08 12:08:24;;;;;;;3.80;1.27;;;;;;;21.38;nan;101045.06;5073146;28;20249;-73
2021/11/08 12:10:51;;;;;;;2.10;0.97;;;;;;;22.09;nan;101040.00;5073124;28;20179;-73
2021/11/08 12:13:21;;;;;;;3.83;1.03;;;;;;;21.19;nan;101037.78;5055110;28;20255;-73
2021/11/08 12:15:46;;;;;;;3.73;1.10;;;;;;;22.02;nan;101045.16;5055219;28;20181;-74
2021/11/08 12:18:15;;;;;;;2.73;1.40;;;;;;;21.95;nan;101038.63;5054816;28;20559;-74
2021/11/08 12:20:43;;;;;;;2.03;1.27;;;;;;;21.85;nan;101032.34;5055423;28;20179;-74
2021/11/08 12:23:28;;;;;;;4.07;1.23;;;;;;;22.33;nan;101048.47;5038819;28;20175;-74
2021/11/08 12:25:54;;;;;;;2.87;1.23;;;;;;;21.07;nan;101058.78;5073126;28;20187;-74
2021/11/08 12:28:24;;;;;;;3.43;1.47;;;;;;;22.01;nan;101059.75;5054764;28;20181;-74
2021/11/08 12:30:53;;;;;;;2.67;1.20;;;;;;;22.03;nan;101052.34;5054732;28;20186;-74
2021/11/08 12:33:36;;;;;;;4.13;1.20;;;;;;;22.93;nan;101062.38;5054766;28;20207;-74
2021/11/08 12:36:10;;;;;;;4.43;1.37;;;;;;;22.41;nan;101053.13;5038042;28;20178;-74
2021/11/08 12:38:40;;;;;;;5.93;1.30;;;;;;;22.44;nan;101061.00;5072704;28;20186;-74
2021/11/08 12:41:18;;;;;;;4.47;1.23;;;;;;;22.93;nan;101058.81;5072570;28;20237;-75
2021/11/08 12:43:56;;;;;;;6.23;1.70;;;;;;;22.67;nan;101067.72;5038068;28;20195;-74
2021/11/08 12:46:24;;;;;;;3.93;1.40;;;;;;;22.62;nan;101070.03;5055375;28;20169;-74
2021/11/08 12:48:51;;;;;;;7.63;1.80;;;;;;;22.21;nan;101067.84;5054569;28;20201;-73
2021/11/08 12:51:21;;;;;;;6.60;2.17;;;;;;;21.36;nan;101066.06;5054583;28;20223;-73
2021/11/08 12:53:59;;;;;;;9.60;2.30;;;;;;;21.61;nan;101078.19;5072012;28;20206;-73
2021/11/08 12:56:27;;;;;;;5.67;2.07;;;;;;;21.56;nan;101059.63;5072256;28;20168;-73
2021/11/08 12:59:00;;;;;;;6.70;2.03;;;;;;;21.94;nan;101064.06;5037832;28;20287;-73
2021/11/08 13:01:47;;;;;;;8.83;2.67;;;;;;;22.28;nan;101071.66;5056342;28;20166;-74
2021/11/08 13:04:15;;;;;;;9.87;2.93;;;;;;;22.63;nan;101065.44;5059924;28;20681;-73
2021/11/08 13:06:41;;;;;;;15.10;3.70;;;;;;;22.77;nan;101065.78;5079218;28;20233;-74
2021/11/08 13:09:11;;;;;;;9.50;2.47;;;;;;;23.20;nan;101074.22;5076719;28;20253;-73
2021/11/08 13:11:41;;;;;;;8.87;2.77;;;;;;;23.60;nan;101073.72;5041571;28;20190;-74
2021/11/08 13:14:07;;;;;;;9.03;3.10;;;;;;;22.02;nan;101069.63;5057588;28;20190;-73
2021/11/08 13:16:41;;;;;;;8.13;3.43;;;;;;;23.55;nan;101085.09;5075889;28;20178;-74